sensor_id;sensor_type;location;lat;lon;timestamp;P1;durP1;ratioP1;P2;durP2;ratioP2
52894;SDS011;38759;53.396;6.722;2023-12-28T00:00:48;5.57;;;3.75;;
52894;SDS011;38759;53.396;6.722;2023-12-28T00:03:14;4.93;;;3.53;;
52894;SDS011;38759;53.396;6.722;2023-12-28T00:05:40;7.30;;;3.90;;
52894;SDS011;38759;53.396;6.722;2023-12-28T00:08:06;6.28;;;3.70;;
52894;SDS011;38759;53.396;6.722;2023-12-28T00:10:31;5.97;;;3.80;;
52894;SDS011;38759;53.396;6.722;2023-12-28T00:12:57;8.18;;;3.40;;
52894;SDS011;38759;53.396;6.722;2023-12-28T00:15:23;7.22;;;3.65;;
52894;SDS011;38759;53.396;6.722;2023-12-28T00:17:49;8.13;;;3.58;;
52894;SDS011;38759;53.396;6.722;2023-12-28T00:20:14;5.78;;;3.38;;
52894;SDS011;38759;53.396;6.722;2023-12-28T00:22:40;6.82;;;3.53;;
52894;SDS011;38759;53.396;6.722;2023-12-28T00:25:06;5.70;;;3.42;;
52894;SDS011;38759;53.396;6.722;2023-12-28T00:27:32;8.93;;;3.58;;
52894;SDS011;38759;53.396;6.722;2023-12-28T00:30:03;6.30;;;3.58;;
52894;SDS011;38759;53.396;6.722;2023-12-28T00:32:30;7.18;;;3.38;;
52894;SDS011;38759;53.396;6.722;2023-12-28T00:34:56;7.35;;;3.08;;
52894;SDS011;38759;53.396;6.722;2023-12-28T00:37:21;9.75;;;3.78;;
52894;SDS011;38759;53.396;6.722;2023-12-28T00:39:47;7.75;;;3.60;;
52894;SDS011;38759;53.396;6.722;2023-12-28T00:42:15;7.85;;;3.60;;
52894;SDS011;38759;53.396;6.722;2023-12-28T00:44:43;8.30;;;3.55;;
52894;SDS011;38759;53.396;6.722;2023-12-28T00:47:08;7.90;;;3.55;;
52894;SDS011;38759;53.396;6.722;2023-12-28T00:49:34;7.07;;;3.70;;
52894;SDS011;38759;53.396;6.722;2023-12-28T00:52:00;6.22;;;3.63;;
52894;SDS011;38759;53.396;6.722;2023-12-28T00:54:25;6.50;;;3.35;;
52894;SDS011;38759;53.396;6.722;2023-12-28T00:56:51;6.03;;;3.63;;
52894;SDS011;38759;53.396;6.722;2023-12-28T00:59:17;7.32;;;3.15;;
52894;SDS011;38759;53.396;6.722;2023-12-28T01:01:45;5.75;;;3.72;;
52894;SDS011;38759;53.396;6.722;2023-12-28T01:04:11;4.90;;;3.58;;
52894;SDS011;38759;53.396;6.722;2023-12-28T01:06:37;9.90;;;3.10;;
52894;SDS011;38759;53.396;6.722;2023-12-28T01:09:02;9.52;;;3.35;;
52894;SDS011;38759;53.396;6.722;2023-12-28T01:11:28;8.18;;;3.50;;
52894;SDS011;38759;53.396;6.722;2023-12-28T01:13:54;10.13;;;3.47;;
52894;SDS011;38759;53.396;6.722;2023-12-28T01:16:20;5.63;;;2.80;;
52894;SDS011;38759;53.396;6.722;2023-12-28T01:18:46;10.23;;;3.30;;
52894;SDS011;38759;53.396;6.722;2023-12-28T01:21:11;14.05;;;3.40;;
52894;SDS011;38759;53.396;6.722;2023-12-28T01:23:37;13.32;;;3.10;;
52894;SDS011;38759;53.396;6.722;2023-12-28T01:26:03;13.90;;;2.85;;
52894;SDS011;38759;53.396;6.722;2023-12-28T01:28:36;14.07;;;3.72;;
52894;SDS011;38759;53.396;6.722;2023-12-28T01:31:02;15.95;;;3.33;;
52894;SDS011;38759;53.396;6.722;2023-12-28T01:33:29;10.57;;;2.75;;
52894;SDS011;38759;53.396;6.722;2023-12-28T01:35:54;8.82;;;2.58;;
52894;SDS011;38759;53.396;6.722;2023-12-28T01:38:20;12.93;;;3.42;;
52894;SDS011;38759;53.396;6.722;2023-12-28T01:40:46;12.25;;;2.67;;
52894;SDS011;38759;53.396;6.722;2023-12-28T01:43:12;16.45;;;3.17;;
52894;SDS011;38759;53.396;6.722;2023-12-28T01:45:38;14.43;;;2.92;;
52894;SDS011;38759;53.396;6.722;2023-12-28T01:48:03;21.40;;;3.20;;
52894;SDS011;38759;53.396;6.722;2023-12-28T01:50:30;14.75;;;3.25;;
52894;SDS011;38759;53.396;6.722;2023-12-28T01:52:57;12.57;;;2.85;;
52894;SDS011;38759;53.396;6.722;2023-12-28T01:55:25;13.30;;;2.85;;
52894;SDS011;38759;53.396;6.722;2023-12-28T01:57:52;13.25;;;3.13;;
52894;SDS011;38759;53.396;6.722;2023-12-28T02:00:21;10.60;;;2.90;;
52894;SDS011;38759;53.396;6.722;2023-12-28T02:02:47;21.50;;;3.17;;
52894;SDS011;38759;53.396;6.722;2023-12-28T02:05:13;13.23;;;2.92;;
52894;SDS011;38759;53.396;6.722;2023-12-28T02:07:40;20.95;;;3.10;;
52894;SDS011;38759;53.396;6.722;2023-12-28T02:10:06;13.35;;;2.75;;
52894;SDS011;38759;53.396;6.722;2023-12-28T02:12:32;11.60;;;2.70;;
52894;SDS011;38759;53.396;6.722;2023-12-28T02:14:59;12.15;;;3.00;;
52894;SDS011;38759;53.396;6.722;2023-12-28T02:17:30;13.25;;;3.13;;
52894;SDS011;38759;53.396;6.722;2023-12-28T02:19:58;21.40;;;3.83;;
52894;SDS011;38759;53.396;6.722;2023-12-28T02:22:25;22.08;;;3.42;;
52894;SDS011;38759;53.396;6.722;2023-12-28T02:27:29;11.43;;;3.43;;
52894;SDS011;38759;53.396;6.722;2023-12-28T02:29:55;17.55;;;3.78;;
52894;SDS011;38759;53.396;6.722;2023-12-28T02:32:28;17.75;;;3.40;;
52894;SDS011;38759;53.396;6.722;2023-12-28T02:35:12;15.77;;;2.97;;
52894;SDS011;38759;53.396;6.722;2023-12-28T02:37:46;14.70;;;3.10;;
52894;SDS011;38759;53.396;6.722;2023-12-28T02:40:16;8.95;;;2.63;;
52894;SDS011;38759;53.396;6.722;2023-12-28T02:42:42;12.65;;;2.47;;
52894;SDS011;38759;53.396;6.722;2023-12-28T02:45:08;14.48;;;2.25;;
52894;SDS011;38759;53.396;6.722;2023-12-28T02:47:34;17.48;;;2.80;;
52894;SDS011;38759;53.396;6.722;2023-12-28T02:50:00;16.42;;;2.80;;
52894;SDS011;38759;53.396;6.722;2023-12-28T02:52:26;13.80;;;2.72;;
52894;SDS011;38759;53.396;6.722;2023-12-28T02:54:51;15.10;;;2.42;;
52894;SDS011;38759;53.396;6.722;2023-12-28T02:57:17;9.05;;;2.80;;
52894;SDS011;38759;53.396;6.722;2023-12-28T02:59:44;10.27;;;3.25;;
52894;SDS011;38759;53.396;6.722;2023-12-28T03:02:10;18.70;;;3.00;;
52894;SDS011;38759;53.396;6.722;2023-12-28T03:04:36;15.63;;;3.03;;
52894;SDS011;38759;53.396;6.722;2023-12-28T03:07:01;14.48;;;3.20;;
52894;SDS011;38759;53.396;6.722;2023-12-28T03:09:27;13.68;;;2.78;;
52894;SDS011;38759;53.396;6.722;2023-12-28T03:11:53;16.48;;;3.15;;
52894;SDS011;38759;53.396;6.722;2023-12-28T03:14:21;14.43;;;3.00;;
52894;SDS011;38759;53.396;6.722;2023-12-28T03:16:46;13.20;;;2.92;;
52894;SDS011;38759;53.396;6.722;2023-12-28T03:19:12;17.05;;;3.13;;
52894;SDS011;38759;53.396;6.722;2023-12-28T03:21:41;19.42;;;3.22;;
52894;SDS011;38759;53.396;6.722;2023-12-28T03:24:07;13.35;;;3.10;;
52894;SDS011;38759;53.396;6.722;2023-12-28T03:26:37;10.30;;;2.45;;
52894;SDS011;38759;53.396;6.722;2023-12-28T03:29:07;15.98;;;2.92;;
52894;SDS011;38759;53.396;6.722;2023-12-28T03:31:38;16.90;;;3.35;;
52894;SDS011;38759;53.396;6.722;2023-12-28T03:34:04;10.70;;;2.67;;
52894;SDS011;38759;53.396;6.722;2023-12-28T03:36:33;9.40;;;2.50;;
52894;SDS011;38759;53.396;6.722;2023-12-28T03:38:59;14.55;;;2.83;;
52894;SDS011;38759;53.396;6.722;2023-12-28T03:41:25;11.52;;;2.63;;
52894;SDS011;38759;53.396;6.722;2023-12-28T03:43:50;12.95;;;3.00;;
52894;SDS011;38759;53.396;6.722;2023-12-28T03:46:16;11.77;;;2.80;;
52894;SDS011;38759;53.396;6.722;2023-12-28T03:48:42;16.08;;;3.20;;
52894;SDS011;38759;53.396;6.722;2023-12-28T03:51:07;16.50;;;2.78;;
52894;SDS011;38759;53.396;6.722;2023-12-28T03:53:38;13.55;;;3.38;;
52894;SDS011;38759;53.396;6.722;2023-12-28T03:56:03;15.93;;;2.22;;
52894;SDS011;38759;53.396;6.722;2023-12-28T03:58:29;13.23;;;2.90;;
52894;SDS011;38759;53.396;6.722;2023-12-28T04:00:55;14.75;;;2.58;;
52894;SDS011;38759;53.396;6.722;2023-12-28T04:03:21;14.18;;;2.53;;
52894;SDS011;38759;53.396;6.722;2023-12-28T04:05:46;9.63;;;2.20;;
52894;SDS011;38759;53.396;6.722;2023-12-28T04:08:15;15.18;;;2.70;;
52894;SDS011;38759;53.396;6.722;2023-12-28T04:10:41;10.80;;;2.60;;
52894;SDS011;38759;53.396;6.722;2023-12-28T04:13:07;10.95;;;2.30;;
52894;SDS011;38759;53.396;6.722;2023-12-28T04:15:33;10.90;;;2.38;;
52894;SDS011;38759;53.396;6.722;2023-12-28T04:17:58;8.63;;;2.47;;
52894;SDS011;38759;53.396;6.722;2023-12-28T04:20:24;13.20;;;2.63;;
52894;SDS011;38759;53.396;6.722;2023-12-28T04:22:50;13.70;;;2.75;;
52894;SDS011;38759;53.396;6.722;2023-12-28T04:25:15;16.45;;;3.15;;
52894;SDS011;38759;53.396;6.722;2023-12-28T04:27:41;14.15;;;3.05;;
52894;SDS011;38759;53.396;6.722;2023-12-28T04:30:07;16.02;;;2.40;;
52894;SDS011;38759;53.396;6.722;2023-12-28T04:32:36;13.38;;;2.80;;
52894;SDS011;38759;53.396;6.722;2023-12-28T04:35:02;9.00;;;2.97;;
52894;SDS011;38759;53.396;6.722;2023-12-28T04:37:28;15.93;;;2.65;;
52894;SDS011;38759;53.396;6.722;2023-12-28T04:39:55;17.48;;;3.35;;
52894;SDS011;38759;53.396;6.722;2023-12-28T04:42:24;16.05;;;2.85;;
52894;SDS011;38759;53.396;6.722;2023-12-28T04:44:50;22.83;;;2.70;;
52894;SDS011;38759;53.396;6.722;2023-12-28T04:47:16;20.27;;;2.88;;
52894;SDS011;38759;53.396;6.722;2023-12-28T04:49:41;10.15;;;2.38;;
52894;SDS011;38759;53.396;6.722;2023-12-28T04:52:07;13.23;;;2.20;;
52894;SDS011;38759;53.396;6.722;2023-12-28T04:54:33;10.63;;;2.20;;
52894;SDS011;38759;53.396;6.722;2023-12-28T04:56:58;17.60;;;2.90;;
52894;SDS011;38759;53.396;6.722;2023-12-28T04:59:24;14.82;;;2.70;;
52894;SDS011;38759;53.396;6.722;2023-12-28T05:01:53;10.65;;;2.47;;
52894;SDS011;38759;53.396;6.722;2023-12-28T05:04:19;14.75;;;2.30;;
52894;SDS011;38759;53.396;6.722;2023-12-28T05:06:45;17.40;;;2.90;;
52894;SDS011;38759;53.396;6.722;2023-12-28T05:09:10;11.50;;;2.53;;
52894;SDS011;38759;53.396;6.722;2023-12-28T05:11:36;13.75;;;2.20;;
52894;SDS011;38759;53.396;6.722;2023-12-28T05:14:02;16.50;;;2.70;;
52894;SDS011;38759;53.396;6.722;2023-12-28T05:16:27;18.40;;;2.30;;
52894;SDS011;38759;53.396;6.722;2023-12-28T05:18:53;14.13;;;2.70;;
52894;SDS011;38759;53.396;6.722;2023-12-28T05:21:18;12.23;;;2.35;;
52894;SDS011;38759;53.396;6.722;2023-12-28T05:23:46;16.50;;;2.65;;
52894;SDS011;38759;53.396;6.722;2023-12-28T05:26:11;14.85;;;2.50;;
52894;SDS011;38759;53.396;6.722;2023-12-28T05:28:37;12.98;;;2.72;;
52894;SDS011;38759;53.396;6.722;2023-12-28T05:31:03;21.00;;;2.90;;
52894;SDS011;38759;53.396;6.722;2023-12-28T05:33:28;14.95;;;2.58;;
52894;SDS011;38759;53.396;6.722;2023-12-28T05:35:54;18.65;;;2.50;;
52894;SDS011;38759;53.396;6.722;2023-12-28T05:38:20;14.85;;;2.40;;
52894;SDS011;38759;53.396;6.722;2023-12-28T05:40:45;17.35;;;2.47;;
52894;SDS011;38759;53.396;6.722;2023-12-28T05:43:11;15.43;;;2.65;;
52894;SDS011;38759;53.396;6.722;2023-12-28T05:45:36;18.50;;;2.83;;
52894;SDS011;38759;53.396;6.722;2023-12-28T05:48:02;16.23;;;2.08;;
52894;SDS011;38759;53.396;6.722;2023-12-28T05:50:28;13.20;;;2.17;;
52894;SDS011;38759;53.396;6.722;2023-12-28T05:52:54;11.35;;;1.95;;
52894;SDS011;38759;53.396;6.722;2023-12-28T05:55:20;15.50;;;2.60;;
52894;SDS011;38759;53.396;6.722;2023-12-28T05:57:46;12.75;;;2.45;;
52894;SDS011;38759;53.396;6.722;2023-12-28T06:00:16;14.65;;;3.13;;
52894;SDS011;38759;53.396;6.722;2023-12-28T06:02:42;18.77;;;2.92;;
52894;SDS011;38759;53.396;6.722;2023-12-28T06:05:07;14.00;;;2.53;;
52894;SDS011;38759;53.396;6.722;2023-12-28T06:07:33;19.52;;;2.70;;
52894;SDS011;38759;53.396;6.722;2023-12-28T06:09:59;22.27;;;2.83;;
52894;SDS011;38759;53.396;6.722;2023-12-28T06:12:25;15.52;;;2.83;;
52894;SDS011;38759;53.396;6.722;2023-12-28T06:14:50;18.73;;;2.58;;
52894;SDS011;38759;53.396;6.722;2023-12-28T06:17:16;25.85;;;2.45;;
52894;SDS011;38759;53.396;6.722;2023-12-28T06:19:43;18.33;;;2.50;;
52894;SDS011;38759;53.396;6.722;2023-12-28T06:22:09;21.20;;;3.92;;
52894;SDS011;38759;53.396;6.722;2023-12-28T06:24:37;16.77;;;2.80;;
52894;SDS011;38759;53.396;6.722;2023-12-28T06:27:04;20.25;;;2.72;;
52894;SDS011;38759;53.396;6.722;2023-12-28T06:29:29;20.73;;;2.80;;
52894;SDS011;38759;53.396;6.722;2023-12-28T06:31:55;16.42;;;3.03;;
52894;SDS011;38759;53.396;6.722;2023-12-28T06:34:21;17.05;;;2.67;;
52894;SDS011;38759;53.396;6.722;2023-12-28T06:36:46;20.77;;;2.70;;
52894;SDS011;38759;53.396;6.722;2023-12-28T06:39:12;24.20;;;3.40;;
52894;SDS011;38759;53.396;6.722;2023-12-28T06:41:38;13.77;;;2.20;;
52894;SDS011;38759;53.396;6.722;2023-12-28T06:44:04;19.58;;;2.72;;
52894;SDS011;38759;53.396;6.722;2023-12-28T06:46:30;19.10;;;3.03;;
52894;SDS011;38759;53.396;6.722;2023-12-28T06:48:55;16.83;;;2.83;;
52894;SDS011;38759;53.396;6.722;2023-12-28T06:51:23;22.50;;;3.33;;
52894;SDS011;38759;53.396;6.722;2023-12-28T06:53:48;13.35;;;2.55;;
52894;SDS011;38759;53.396;6.722;2023-12-28T06:56:14;18.77;;;2.92;;
52894;SDS011;38759;53.396;6.722;2023-12-28T06:58:41;11.27;;;2.47;;
52894;SDS011;38759;53.396;6.722;2023-12-28T07:01:07;25.50;;;2.90;;
52894;SDS011;38759;53.396;6.722;2023-12-28T07:03:32;17.13;;;2.50;;
52894;SDS011;38759;53.396;6.722;2023-12-28T07:05:59;22.42;;;2.72;;
52894;SDS011;38759;53.396;6.722;2023-12-28T07:08:25;21.42;;;2.97;;
52894;SDS011;38759;53.396;6.722;2023-12-28T07:10:50;21.90;;;3.30;;
52894;SDS011;38759;53.396;6.722;2023-12-28T07:13:16;24.10;;;3.65;;
52894;SDS011;38759;53.396;6.722;2023-12-28T07:15:42;19.33;;;3.00;;
52894;SDS011;38759;53.396;6.722;2023-12-28T07:18:07;23.10;;;3.13;;
52894;SDS011;38759;53.396;6.722;2023-12-28T07:20:33;21.92;;;2.88;;
52894;SDS011;38759;53.396;6.722;2023-12-28T07:22:59;15.90;;;2.78;;
52894;SDS011;38759;53.396;6.722;2023-12-28T07:25:24;22.77;;;3.13;;
52894;SDS011;38759;53.396;6.722;2023-12-28T07:27:50;20.67;;;3.22;;
52894;SDS011;38759;53.396;6.722;2023-12-28T07:30:16;18.38;;;2.95;;
52894;SDS011;38759;53.396;6.722;2023-12-28T07:32:43;16.15;;;2.47;;
52894;SDS011;38759;53.396;6.722;2023-12-28T07:35:09;26.92;;;3.08;;
52894;SDS011;38759;53.396;6.722;2023-12-28T07:37:36;19.77;;;3.10;;
52894;SDS011;38759;53.396;6.722;2023-12-28T07:40:02;26.88;;;3.13;;
52894;SDS011;38759;53.396;6.722;2023-12-28T07:42:28;30.75;;;3.53;;
52894;SDS011;38759;53.396;6.722;2023-12-28T07:44:54;26.90;;;3.60;;
52894;SDS011;38759;53.396;6.722;2023-12-28T07:47:20;21.92;;;4.25;;
52894;SDS011;38759;53.396;6.722;2023-12-28T07:49:46;20.92;;;3.08;;
52894;SDS011;38759;53.396;6.722;2023-12-28T07:52:11;24.60;;;3.65;;
52894;SDS011;38759;53.396;6.722;2023-12-28T07:54:37;16.15;;;2.35;;
52894;SDS011;38759;53.396;6.722;2023-12-28T07:57:03;23.38;;;3.88;;
52894;SDS011;38759;53.396;6.722;2023-12-28T07:59:29;29.58;;;2.83;;
52894;SDS011;38759;53.396;6.722;2023-12-28T08:01:55;28.88;;;3.22;;
52894;SDS011;38759;53.396;6.722;2023-12-28T08:04:21;21.60;;;2.80;;
52894;SDS011;38759;53.396;6.722;2023-12-28T08:06:47;20.60;;;4.43;;
52894;SDS011;38759;53.396;6.722;2023-12-28T08:09:12;24.08;;;3.25;;
52894;SDS011;38759;53.396;6.722;2023-12-28T08:11:38;18.38;;;3.17;;
52894;SDS011;38759;53.396;6.722;2023-12-28T08:14:04;26.77;;;3.28;;
52894;SDS011;38759;53.396;6.722;2023-12-28T08:16:30;27.38;;;3.28;;
52894;SDS011;38759;53.396;6.722;2023-12-28T08:18:57;25.25;;;3.30;;
52894;SDS011;38759;53.396;6.722;2023-12-28T08:21:22;16.33;;;2.67;;
52894;SDS011;38759;53.396;6.722;2023-12-28T08:23:51;26.05;;;2.88;;
52894;SDS011;38759;53.396;6.722;2023-12-28T08:26:17;29.50;;;3.40;;
52894;SDS011;38759;53.396;6.722;2023-12-28T08:28:43;28.65;;;4.47;;
52894;SDS011;38759;53.396;6.722;2023-12-28T08:31:09;32.83;;;5.00;;
52894;SDS011;38759;53.396;6.722;2023-12-28T08:33:35;32.50;;;4.20;;
52894;SDS011;38759;53.396;6.722;2023-12-28T08:36:04;22.95;;;3.95;;
52894;SDS011;38759;53.396;6.722;2023-12-28T08:38:30;24.60;;;3.33;;
52894;SDS011;38759;53.396;6.722;2023-12-28T08:40:56;27.08;;;3.63;;
52894;SDS011;38759;53.396;6.722;2023-12-28T08:43:22;34.15;;;3.78;;
52894;SDS011;38759;53.396;6.722;2023-12-28T08:45:47;32.22;;;3.50;;
52894;SDS011;38759;53.396;6.722;2023-12-28T08:48:13;26.85;;;3.53;;
52894;SDS011;38759;53.396;6.722;2023-12-28T08:50:39;25.55;;;3.97;;
52894;SDS011;38759;53.396;6.722;2023-12-28T08:53:04;31.08;;;3.80;;
52894;SDS011;38759;53.396;6.722;2023-12-28T08:55:30;28.92;;;3.83;;
52894;SDS011;38759;53.396;6.722;2023-12-28T08:57:56;35.22;;;4.72;;
52894;SDS011;38759;53.396;6.722;2023-12-28T09:00:22;27.70;;;3.55;;
52894;SDS011;38759;53.396;6.722;2023-12-28T09:02:47;24.63;;;3.83;;
52894;SDS011;38759;53.396;6.722;2023-12-28T09:05:13;34.65;;;4.88;;
52894;SDS011;38759;53.396;6.722;2023-12-28T09:07:39;39.30;;;5.03;;
52894;SDS011;38759;53.396;6.722;2023-12-28T09:10:11;39.35;;;5.93;;
52894;SDS011;38759;53.396;6.722;2023-12-28T09:12:37;32.65;;;4.45;;
52894;SDS011;38759;53.396;6.722;2023-12-28T09:15:05;25.40;;;3.67;;
52894;SDS011;38759;53.396;6.722;2023-12-28T09:17:31;30.63;;;4.40;;
52894;SDS011;38759;53.396;6.722;2023-12-28T09:19:57;30.98;;;5.18;;
52894;SDS011;38759;53.396;6.722;2023-12-28T09:22:23;38.88;;;5.20;;
52894;SDS011;38759;53.396;6.722;2023-12-28T09:24:49;28.35;;;4.50;;
52894;SDS011;38759;53.396;6.722;2023-12-28T09:27:14;29.80;;;3.83;;
52894;SDS011;38759;53.396;6.722;2023-12-28T09:29:40;32.65;;;4.53;;
52894;SDS011;38759;53.396;6.722;2023-12-28T09:32:06;22.73;;;3.67;;
52894;SDS011;38759;53.396;6.722;2023-12-28T09:34:32;28.17;;;3.95;;
52894;SDS011;38759;53.396;6.722;2023-12-28T09:36:58;31.25;;;4.70;;
52894;SDS011;38759;53.396;6.722;2023-12-28T09:39:24;36.10;;;5.82;;
52894;SDS011;38759;53.396;6.722;2023-12-28T09:41:54;31.17;;;4.40;;
52894;SDS011;38759;53.396;6.722;2023-12-28T09:44:24;28.23;;;4.13;;
52894;SDS011;38759;53.396;6.722;2023-12-28T09:46:51;25.90;;;3.40;;
52894;SDS011;38759;53.396;6.722;2023-12-28T09:49:19;40.25;;;4.90;;
52894;SDS011;38759;53.396;6.722;2023-12-28T09:51:46;30.65;;;4.78;;
52894;SDS011;38759;53.396;6.722;2023-12-28T09:54:13;27.67;;;3.58;;
52894;SDS011;38759;53.396;6.722;2023-12-28T09:56:38;33.15;;;3.55;;
52894;SDS011;38759;53.396;6.722;2023-12-28T09:59:06;34.65;;;4.28;;
52894;SDS011;38759;53.396;6.722;2023-12-28T10:01:35;32.05;;;3.63;;
52894;SDS011;38759;53.396;6.722;2023-12-28T10:04:01;35.45;;;4.30;;
52894;SDS011;38759;53.396;6.722;2023-12-28T10:06:29;31.58;;;4.53;;
52894;SDS011;38759;53.396;6.722;2023-12-28T10:08:55;29.48;;;3.10;;
52894;SDS011;38759;53.396;6.722;2023-12-28T10:11:21;16.15;;;3.05;;
52894;SDS011;38759;53.396;6.722;2023-12-28T10:13:50;35.53;;;4.57;;
52894;SDS011;38759;53.396;6.722;2023-12-28T10:16:16;42.75;;;4.78;;
52894;SDS011;38759;53.396;6.722;2023-12-28T10:18:45;35.30;;;5.63;;
52894;SDS011;38759;53.396;6.722;2023-12-28T10:21:11;35.97;;;5.45;;
52894;SDS011;38759;53.396;6.722;2023-12-28T10:23:38;32.75;;;4.25;;
52894;SDS011;38759;53.396;6.722;2023-12-28T10:26:04;30.45;;;4.10;;
52894;SDS011;38759;53.396;6.722;2023-12-28T10:28:31;27.98;;;3.60;;
52894;SDS011;38759;53.396;6.722;2023-12-28T10:31:03;30.17;;;4.30;;
52894;SDS011;38759;53.396;6.722;2023-12-28T10:33:33;34.72;;;4.25;;
52894;SDS011;38759;53.396;6.722;2023-12-28T10:36:00;32.15;;;3.78;;
52894;SDS011;38759;53.396;6.722;2023-12-28T10:38:35;31.00;;;4.10;;
52894;SDS011;38759;53.396;6.722;2023-12-28T10:41:08;26.50;;;4.15;;
52894;SDS011;38759;53.396;6.722;2023-12-28T10:46:33;30.40;;;4.28;;
52894;SDS011;38759;53.396;6.722;2023-12-28T10:49:09;27.70;;;4.22;;
52894;SDS011;38759;53.396;6.722;2023-12-28T10:51:41;25.75;;;3.60;;
52894;SDS011;38759;53.396;6.722;2023-12-28T10:57:23;24.33;;;3.72;;
52894;SDS011;38759;53.396;6.722;2023-12-28T11:00:10;21.60;;;3.25;;
52894;SDS011;38759;53.396;6.722;2023-12-28T11:02:39;22.90;;;3.55;;
52894;SDS011;38759;53.396;6.722;2023-12-28T11:05:17;32.00;;;3.55;;
52894;SDS011;38759;53.396;6.722;2023-12-28T11:07:47;34.53;;;3.55;;
52894;SDS011;38759;53.396;6.722;2023-12-28T11:10:15;37.05;;;5.43;;
52894;SDS011;38759;53.396;6.722;2023-12-28T11:12:42;28.08;;;3.25;;
52894;SDS011;38759;53.396;6.722;2023-12-28T11:15:09;18.27;;;3.63;;
52894;SDS011;38759;53.396;6.722;2023-12-28T11:17:37;20.02;;;3.38;;
52894;SDS011;38759;53.396;6.722;2023-12-28T11:20:03;25.48;;;3.65;;
52894;SDS011;38759;53.396;6.722;2023-12-28T11:22:33;25.25;;;3.38;;
52894;SDS011;38759;53.396;6.722;2023-12-28T11:24:59;24.88;;;3.80;;
52894;SDS011;38759;53.396;6.722;2023-12-28T11:27:25;21.88;;;3.97;;
52894;SDS011;38759;53.396;6.722;2023-12-28T11:29:58;22.50;;;3.42;;
52894;SDS011;38759;53.396;6.722;2023-12-28T11:32:23;29.38;;;3.80;;
52894;SDS011;38759;53.396;6.722;2023-12-28T11:34:58;24.15;;;3.13;;
52894;SDS011;38759;53.396;6.722;2023-12-28T11:37:26;38.22;;;4.25;;
52894;SDS011;38759;53.396;6.722;2023-12-28T11:39:52;23.00;;;3.67;;
52894;SDS011;38759;53.396;6.722;2023-12-28T11:42:20;24.50;;;3.35;;
52894;SDS011;38759;53.396;6.722;2023-12-28T11:44:47;22.55;;;3.92;;
52894;SDS011;38759;53.396;6.722;2023-12-28T11:47:22;24.80;;;3.53;;
52894;SDS011;38759;53.396;6.722;2023-12-28T11:49:48;27.95;;;3.35;;
52894;SDS011;38759;53.396;6.722;2023-12-28T11:52:30;26.80;;;3.55;;
52894;SDS011;38759;53.396;6.722;2023-12-28T11:54:56;31.05;;;4.30;;
52894;SDS011;38759;53.396;6.722;2023-12-28T11:57:22;27.48;;;4.53;;
52894;SDS011;38759;53.396;6.722;2023-12-28T11:59:52;27.27;;;4.05;;
52894;SDS011;38759;53.396;6.722;2023-12-28T12:02:22;29.52;;;3.47;;
52894;SDS011;38759;53.396;6.722;2023-12-28T12:04:52;29.90;;;4.60;;
52894;SDS011;38759;53.396;6.722;2023-12-28T12:07:19;24.83;;;3.58;;
52894;SDS011;38759;53.396;6.722;2023-12-28T12:09:44;21.70;;;3.50;;
52894;SDS011;38759;53.396;6.722;2023-12-28T12:12:10;27.08;;;4.00;;
52894;SDS011;38759;53.396;6.722;2023-12-28T12:14:36;32.50;;;5.18;;
52894;SDS011;38759;53.396;6.722;2023-12-28T12:17:02;23.38;;;3.47;;
52894;SDS011;38759;53.396;6.722;2023-12-28T12:19:28;24.95;;;3.40;;
52894;SDS011;38759;53.396;6.722;2023-12-28T12:21:54;24.98;;;3.40;;
52894;SDS011;38759;53.396;6.722;2023-12-28T12:24:21;34.17;;;4.32;;
52894;SDS011;38759;53.396;6.722;2023-12-28T12:26:49;24.33;;;3.13;;
52894;SDS011;38759;53.396;6.722;2023-12-28T12:29:16;26.92;;;3.97;;
52894;SDS011;38759;53.396;6.722;2023-12-28T12:31:43;24.52;;;3.72;;
52894;SDS011;38759;53.396;6.722;2023-12-28T12:34:11;28.83;;;4.28;;
52894;SDS011;38759;53.396;6.722;2023-12-28T12:36:38;31.50;;;3.92;;
52894;SDS011;38759;53.396;6.722;2023-12-28T12:39:04;24.67;;;3.78;;
52894;SDS011;38759;53.396;6.722;2023-12-28T12:41:33;32.58;;;4.35;;
52894;SDS011;38759;53.396;6.722;2023-12-28T12:44:00;19.80;;;3.50;;
52894;SDS011;38759;53.396;6.722;2023-12-28T12:46:26;26.27;;;4.32;;
52894;SDS011;38759;53.396;6.722;2023-12-28T12:48:55;21.50;;;3.72;;
52894;SDS011;38759;53.396;6.722;2023-12-28T12:51:22;31.25;;;4.28;;
52894;SDS011;38759;53.396;6.722;2023-12-28T12:53:48;34.85;;;5.75;;
52894;SDS011;38759;53.396;6.722;2023-12-28T12:56:14;30.00;;;3.83;;
52894;SDS011;38759;53.396;6.722;2023-12-28T12:58:40;34.28;;;4.25;;
52894;SDS011;38759;53.396;6.722;2023-12-28T13:01:09;37.72;;;4.40;;
52894;SDS011;38759;53.396;6.722;2023-12-28T13:03:36;29.98;;;4.38;;
52894;SDS011;38759;53.396;6.722;2023-12-28T13:06:03;22.75;;;3.47;;
52894;SDS011;38759;53.396;6.722;2023-12-28T13:08:29;35.42;;;4.32;;
52894;SDS011;38759;53.396;6.722;2023-12-28T13:10:55;36.30;;;4.03;;
52894;SDS011;38759;53.396;6.722;2023-12-28T13:13:20;36.15;;;4.85;;
52894;SDS011;38759;53.396;6.722;2023-12-28T13:15:46;33.28;;;4.60;;
52894;SDS011;38759;53.396;6.722;2023-12-28T13:18:12;31.95;;;5.30;;
52894;SDS011;38759;53.396;6.722;2023-12-28T13:20:38;15.88;;;2.92;;
52894;SDS011;38759;53.396;6.722;2023-12-28T13:23:03;20.60;;;3.63;;
52894;SDS011;38759;53.396;6.722;2023-12-28T13:25:29;26.33;;;3.60;;
52894;SDS011;38759;53.396;6.722;2023-12-28T13:27:55;36.75;;;3.97;;
52894;SDS011;38759;53.396;6.722;2023-12-28T13:30:21;30.20;;;4.20;;
52894;SDS011;38759;53.396;6.722;2023-12-28T13:32:47;26.98;;;3.45;;
52894;SDS011;38759;53.396;6.722;2023-12-28T13:35:12;34.72;;;4.30;;
52894;SDS011;38759;53.396;6.722;2023-12-28T13:37:39;26.83;;;3.60;;
52894;SDS011;38759;53.396;6.722;2023-12-28T13:40:05;24.08;;;3.92;;
52894;SDS011;38759;53.396;6.722;2023-12-28T13:42:32;28.25;;;3.30;;
52894;SDS011;38759;53.396;6.722;2023-12-28T13:44:57;29.58;;;4.13;;
52894;SDS011;38759;53.396;6.722;2023-12-28T13:47:23;26.95;;;3.92;;
52894;SDS011;38759;53.396;6.722;2023-12-28T13:49:49;24.13;;;3.40;;
52894;SDS011;38759;53.396;6.722;2023-12-28T13:52:14;24.25;;;2.95;;
52894;SDS011;38759;53.396;6.722;2023-12-28T13:54:40;25.90;;;3.70;;
52894;SDS011;38759;53.396;6.722;2023-12-28T13:57:06;25.35;;;3.30;;
52894;SDS011;38759;53.396;6.722;2023-12-28T13:59:32;26.58;;;3.67;;
52894;SDS011;38759;53.396;6.722;2023-12-28T14:01:58;26.90;;;3.45;;
52894;SDS011;38759;53.396;6.722;2023-12-28T14:04:24;29.75;;;3.47;;
52894;SDS011;38759;53.396;6.722;2023-12-28T14:06:50;19.90;;;3.17;;
52894;SDS011;38759;53.396;6.722;2023-12-28T14:09:15;34.13;;;3.75;;
52894;SDS011;38759;53.396;6.722;2023-12-28T14:11:45;23.38;;;3.22;;
52894;SDS011;38759;53.396;6.722;2023-12-28T14:14:12;21.90;;;3.20;;
52894;SDS011;38759;53.396;6.722;2023-12-28T14:16:38;30.73;;;3.15;;
52894;SDS011;38759;53.396;6.722;2023-12-28T14:19:03;23.88;;;3.50;;
52894;SDS011;38759;53.396;6.722;2023-12-28T14:21:33;36.88;;;4.05;;
52894;SDS011;38759;53.396;6.722;2023-12-28T14:24:03;21.08;;;3.15;;
52894;SDS011;38759;53.396;6.722;2023-12-28T14:26:29;30.73;;;4.35;;
52894;SDS011;38759;53.396;6.722;2023-12-28T14:28:57;32.45;;;3.85;;
52894;SDS011;38759;53.396;6.722;2023-12-28T14:31:24;30.38;;;4.70;;
52894;SDS011;38759;53.396;6.722;2023-12-28T14:33:51;19.60;;;2.53;;
52894;SDS011;38759;53.396;6.722;2023-12-28T14:36:31;21.77;;;3.47;;
52894;SDS011;38759;53.396;6.722;2023-12-28T14:39:01;31.08;;;3.88;;
52894;SDS011;38759;53.396;6.722;2023-12-28T14:41:30;25.75;;;2.97;;